Winchester, Illinois
Current Conditions -  °F | °C
As of 3:15 AM on Monday 24 Nov 2014 (Local Time) from KIJX Reporting Station
Moderate Rain Moderate Rain  
Wind Chill: 33°   Ceiling: 900
Heat Index: 42°   Visibility: 5mi
Dew Point: 40°   Wind: 18mph
Humidity: 91%   Direction: 280°W
Pressure: 29.26"   Gusts: 29mph
Location:  39.63°N, 90.46°W
Report Text: KIJX 240915Z AUTO 28016G25KT 5SM RA BKN009 OVC016 06/04 A2926 RMK AO2 P0003 T00550042
Loading
Personal Weather Stations






























Interactive Weather Map New forecast layout! Learn more

10-Day Weather Forecast

Advertisements
Track Severe Weather on mobile